Time;durP1;ratioP1;P1;durP2;ratioP2;P2;SDS_P1;SDS_P2;PMS_P1;PMS_P2;Temp;Humidity;BMP_temperature;BMP_pressure;BME280_temperature;BME280_humidity;BME280_pressure;Samples;Min_cycle;Max_cycle;Signal;HPM_P1;HPM_P2
2022/04/06 00:00:25;;;;;;;0.00;0.00;;;;;;;;;;1669894;29;20244;-74
2022/04/06 00:01:16;;;;;;;0.00;0.00;;;;;;;;;;1671443;29;20612;-75
2022/04/06 00:02:09;;;;;;;0.00;0.00;;;;;;;;;;1676458;29;20299;-75
2022/04/06 00:03:01;;;;;;;0.00;0.00;;;;;;;;;;1670372;29;20275;-74
2022/04/06 00:03:54;;;;;;;0.00;0.00;;;;;;;;;;1671492;29;20716;-75
2022/04/06 00:04:48;;;;;;;0.00;0.00;;;;;;;;;;1672079;29;20217;-74
2022/04/06 00:05:39;;;;;;;0.00;0.00;;;;;;;;;;1670659;29;20635;-75
2022/04/06 00:06:31;;;;;;;0.00;0.00;;;;;;;;;;1671811;29;20206;-75
2022/04/06 00:07:23;;;;;;;0.00;0.00;;;;;;;;;;1673505;29;20214;-75
2022/04/06 00:08:15;;;;;;;0.00;0.00;;;;;;;;;;1684636;29;20678;-75
2022/04/06 00:09:06;;;;;;;0.00;0.00;;;;;;;;;;1684575;29;20279;-75
2022/04/06 00:09:58;;;;;;;0.00;0.00;;;;;;;;;;1685306;29;20224;-75
2022/04/06 00:10:50;;;;;;;0.00;0.00;;;;;;;;;;1683537;29;20250;-75
2022/04/06 00:11:42;;;;;;;0.00;0.00;;;;;;;;;;1693369;29;20214;-75
2022/04/06 00:12:33;;;;;;;0.00;0.00;;;;;;;;;;1710241;28;20617;-74
2022/04/06 00:13:25;;;;;;;0.00;0.00;;;;;;;;;;1710695;28;20294;-75
2022/04/06 00:14:17;;;;;;;0.00;0.00;;;;;;;;;;1710046;28;20209;-75
2022/04/06 00:15:11;;;;;;;0.00;0.00;;;;;;;;;;1710664;28;20205;-75
2022/04/06 00:16:02;;;;;;;0.00;0.00;;;;;;;;;;1707205;28;20252;-75
2022/04/06 00:16:54;;;;;;;0.00;0.00;;;;;;;;;;1711102;28;20198;-74
2022/04/06 00:17:47;;;;;;;0.00;0.00;;;;;;;;;;1709859;28;20295;-75
2022/04/06 00:18:39;;;;;;;0.00;0.00;;;;;;;;;;1710969;28;20202;-75
2022/04/06 00:19:31;;;;;;;0.00;0.00;;;;;;;;;;1710802;28;20208;-74
2022/04/06 00:20:23;;;;;;;0.00;0.00;;;;;;;;;;1716764;28;20232;-75
2022/04/06 00:21:15;;;;;;;0.00;0.00;;;;;;;;;;1731168;28;20235;-75
2022/04/06 00:22:07;;;;;;;0.00;0.00;;;;;;;;;;1730516;28;20235;-75
2022/04/06 00:22:58;;;;;;;0.00;0.00;;;;;;;;;;1731384;28;20223;-74
2022/04/06 00:23:50;;;;;;;0.00;0.00;;;;;;;;;;1731388;28;20204;-75
2022/04/06 00:24:42;;;;;;;0.00;0.00;;;;;;;;;;1732237;28;20630;-75
2022/04/06 00:25:34;;;;;;;0.00;0.00;;;;;;;;;;1728817;28;20227;-75
2022/04/06 00:26:25;;;;;;;0.00;0.00;;;;;;;;;;1732222;28;20410;-75
2022/04/06 00:27:17;;;;;;;0.00;0.00;;;;;;;;;;1730708;28;20549;-75
2022/04/06 00:28:08;;;;;;;0.00;0.00;;;;;;;;;;1730979;28;20211;-74
2022/04/06 00:29:01;;;;;;;0.00;0.00;;;;;;;;;;1730803;28;20215;-75
2022/04/06 00:29:52;;;;;;;0.00;0.00;;;;;;;;;;1732140;28;20456;-75
2022/04/06 00:30:44;;;;;;;0.00;0.00;;;;;;;;;;1728673;28;20342;-74
2022/04/06 00:31:35;;;;;;;0.00;0.00;;;;;;;;;;1732129;28;20215;-74
2022/04/06 00:32:28;;;;;;;0.00;0.00;;;;;;;;;;1731228;28;20215;-74
2022/04/06 00:33:20;;;;;;;0.00;0.00;;;;;;;;;;1731503;28;20208;-74
2022/04/06 00:34:13;;;;;;;0.00;0.00;;;;;;;;;;1730122;28;20216;-74
2022/04/06 00:36:14;;;;;;;0.00;0.00;;;;;;;;;;1729921;28;20583;-74
2022/04/06 00:37:06;;;;;;;0.00;0.00;;;;;;;;;;1731258;28;20286;-75
2022/04/06 00:37:58;;;;;;;0.00;0.00;;;;;;;;;;1731625;28;20207;-74
2022/04/06 00:38:50;;;;;;;0.00;0.00;;;;;;;;;;1730692;28;20231;-74
2022/04/06 00:39:41;;;;;;;0.00;0.00;;;;;;;;;;1731761;28;20200;-74
2022/04/06 00:40:34;;;;;;;0.00;0.00;;;;;;;;;;1728708;28;20227;-75
2022/04/06 00:41:25;;;;;;;0.00;0.00;;;;;;;;;;1728729;28;20637;-75
2022/04/06 00:42:18;;;;;;;0.00;0.00;;;;;;;;;;1731331;28;20210;-75
2022/04/06 00:43:11;;;;;;;0.00;0.00;;;;;;;;;;1731931;28;20208;-75
2022/04/06 00:44:14;;;;;;;0.00;0.00;;;;;;;;;;1730952;28;20951;-74
2022/04/06 00:45:06;;;;;;;0.00;0.00;;;;;;;;;;1732075;28;20218;-74
2022/04/06 00:45:58;;;;;;;0.00;0.00;;;;;;;;;;1728316;28;20227;-74
2022/04/06 00:46:49;;;;;;;0.00;0.00;;;;;;;;;;1731558;28;20572;-74
2022/04/06 00:47:41;;;;;;;0.00;0.00;;;;;;;;;;1730608;28;20233;-74
2022/04/06 00:48:34;;;;;;;0.00;0.00;;;;;;;;;;1732233;28;20203;-74
2022/04/06 00:49:27;;;;;;;0.00;0.00;;;;;;;;;;1730346;28;20246;-74
2022/04/06 00:50:23;;;;;;;0.00;0.00;;;;;;;;;;1730074;28;20249;-74
2022/04/06 00:51:15;;;;;;;0.00;0.00;;;;;;;;;;1731178;28;20226;-75
2022/04/06 00:52:07;;;;;;;0.00;0.00;;;;;;;;;;1730620;28;20215;-75
2022/04/06 00:53:00;;;;;;;0.00;0.00;;;;;;;;;;1730865;28;20657;-75
2022/04/06 00:53:51;;;;;;;0.00;0.00;;;;;;;;;;1725389;28;20228;-75
2022/04/06 00:54:43;;;;;;;0.00;0.00;;;;;;;;;;1731864;28;20210;-74
2022/04/06 00:55:36;;;;;;;0.00;0.00;;;;;;;;;;1728469;28;20235;-74
2022/04/06 00:56:29;;;;;;;0.00;0.00;;;;;;;;;;1731963;28;20211;-74
2022/04/06 00:57:20;;;;;;;0.00;0.00;;;;;;;;;;1731231;28;20246;-74
2022/04/06 00:58:12;;;;;;;0.00;0.00;;;;;;;;;;1731806;28;20574;-74
2022/04/06 00:59:04;;;;;;;0.00;0.00;;;;;;;;;;1730253;28;20280;-74
2022/04/06 00:59:57;;;;;;;0.00;0.00;;;;;;;;;;1731504;28;20200;-74
2022/04/06 01:00:49;;;;;;;0.00;0.00;;;;;;;;;;1728841;28;20235;-75
2022/04/06 01:01:40;;;;;;;0.00;0.00;;;;;;;;;;1731957;28;20211;-75
2022/04/06 01:02:33;;;;;;;0.00;0.00;;;;;;;;;;1730323;28;20208;-74
2022/04/06 01:03:24;;;;;;;0.00;0.00;;;;;;;;;;1732278;28;20743;-74
2022/04/06 01:04:18;;;;;;;0.00;0.00;;;;;;;;;;1730915;28;20215;-74
2022/04/06 01:05:10;;;;;;;0.00;0.00;;;;;;;;;;1731069;28;20219;-75
2022/04/06 01:06:02;;;;;;;0.00;0.00;;;;;;;;;;1729095;28;20227;-74
2022/04/06 01:06:53;;;;;;;0.00;0.00;;;;;;;;;;1733400;28;20673;-74
2022/04/06 01:07:49;;;;;;;0.00;0.00;;;;;;;;;;1728808;28;20248;-74
2022/04/06 01:08:40;;;;;;;0.00;0.00;;;;;;;;;;1726395;28;20217;-74
2022/04/06 01:09:32;;;;;;;0.00;0.00;;;;;;;;;;1724550;28;20243;-74
2022/04/06 01:10:24;;;;;;;0.00;0.00;;;;;;;;;;1723672;28;20569;-73
2022/04/06 01:11:16;;;;;;;0.00;0.00;;;;;;;;;;1725365;28;20709;-74
2022/04/06 01:12:08;;;;;;;0.00;0.00;;;;;;;;;;1725363;28;20204;-74
2022/04/06 01:13:00;;;;;;;0.00;0.00;;;;;;;;;;1725814;28;20526;-74
2022/04/06 01:13:52;;;;;;;0.00;0.00;;;;;;;;;;1720331;28;20260;-74
2022/04/06 01:14:45;;;;;;;0.00;0.00;;;;;;;;;;1722872;28;20208;-74
2022/04/06 01:15:36;;;;;;;0.00;0.00;;;;;;;;;;1723268;28;20255;-74
2022/04/06 01:16:28;;;;;;;0.00;0.00;;;;;;;;;;1726496;28;20453;-74
2022/04/06 01:17:19;;;;;;;0.00;0.00;;;;;;;;;;1724683;28;20212;-74
2022/04/06 01:18:12;;;;;;;0.00;0.00;;;;;;;;;;1726056;28;20209;-74
2022/04/06 01:19:03;;;;;;;0.00;0.00;;;;;;;;;;1725182;28;20631;-74
2022/04/06 01:19:56;;;;;;;0.00;0.00;;;;;;;;;;1726315;28;20232;-73
2022/04/06 01:20:48;;;;;;;0.00;0.00;;;;;;;;;;1723435;28;20240;-73
2022/04/06 01:21:40;;;;;;;0.00;0.00;;;;;;;;;;1726337;28;20231;-74
2022/04/06 01:22:32;;;;;;;0.00;0.00;;;;;;;;;;1725511;28;20622;-73
2022/04/06 01:23:25;;;;;;;0.00;0.00;;;;;;;;;;1725634;28;20208;-73
2022/04/06 01:24:16;;;;;;;0.00;0.00;;;;;;;;;;1725147;28;20208;-73
2022/04/06 01:25:08;;;;;;;0.00;0.00;;;;;;;;;;1726507;28;20696;-73
2022/04/06 01:26:00;;;;;;;0.00;0.00;;;;;;;;;;1721989;28;20243;-74
2022/04/06 01:26:52;;;;;;;0.00;0.00;;;;;;;;;;1726550;28;20200;-74
2022/04/06 01:27:43;;;;;;;0.00;0.00;;;;;;;;;;1725533;28;20208;-74
2022/04/06 01:28:36;;;;;;;0.00;0.00;;;;;;;;;;1726675;28;20283;-75
2022/04/06 01:29:27;;;;;;;0.00;0.00;;;;;;;;;;1724978;28;20211;-74
2022/04/06 01:30:22;;;;;;;0.00;0.00;;;;;;;;;;1723710;28;20557;-74
2022/04/06 01:31:13;;;;;;;0.00;0.00;;;;;;;;;;1727869;28;20227;-74
2022/04/06 01:32:09;;;;;;;0.00;0.00;;;;;;;;;;1720678;28;20215;-74
2022/04/06 01:33:05;;;;;;;0.00;0.00;;;;;;;;;;1723763;28;20552;-74
2022/04/06 01:33:57;;;;;;;0.00;0.00;;;;;;;;;;1725524;28;20225;-74
2022/04/06 01:34:48;;;;;;;0.00;0.00;;;;;;;;;;1726528;28;20201;-74
2022/04/06 01:35:42;;;;;;;0.00;0.00;;;;;;;;;;1723275;28;20255;-75
2022/04/06 01:36:33;;;;;;;0.00;0.00;;;;;;;;;;1725849;28;20207;-74
2022/04/06 01:37:25;;;;;;;0.00;0.00;;;;;;;;;;1725603;28;20212;-75
2022/04/06 01:38:18;;;;;;;0.00;0.00;;;;;;;;;;1726663;28;20706;-75
2022/04/06 01:39:10;;;;;;;0.00;0.00;;;;;;;;;;1724845;28;20256;-75
2022/04/06 01:40:03;;;;;;;0.00;0.00;;;;;;;;;;1726325;28;20208;-74
2022/04/06 01:40:55;;;;;;;0.00;0.00;;;;;;;;;;1723966;28;21022;-74
2022/04/06 01:41:47;;;;;;;0.00;0.00;;;;;;;;;;1726035;28;20212;-74
2022/04/06 01:42:39;;;;;;;0.00;0.00;;;;;;;;;;1721205;28;20231;-74
2022/04/06 01:43:30;;;;;;;0.00;0.00;;;;;;;;;;1727353;28;20230;-73
2022/04/06 01:44:22;;;;;;;0.00;0.00;;;;;;;;;;1725322;28;20232;-73
2022/04/06 01:45:13;;;;;;;0.00;0.00;;;;;;;;;;1725399;28;20656;-74
2022/04/06 01:46:05;;;;;;;0.00;0.00;;;;;;;;;;1722042;28;20237;-74
2022/04/06 01:46:57;;;;;;;0.00;0.00;;;;;;;;;;1726891;28;20677;-74
2022/04/06 01:47:50;;;;;;;0.00;0.00;;;;;;;;;;1721336;28;20240;-74
2022/04/06 01:52:15;;;;;;;0.00;0.00;;;;;;;;;;1711117;28;20270;-74
2022/04/06 01:53:07;;;;;;;0.00;0.00;;;;;;;;;;1711641;28;20268;-74
2022/04/06 01:54:00;;;;;;;0.00;0.00;;;;;;;;;;1716103;28;20229;-75
2022/04/06 01:54:53;;;;;;;0.00;0.00;;;;;;;;;;1725819;28;20208;-74
2022/04/06 01:55:44;;;;;;;0.00;0.00;;;;;;;;;;1723279;28;20240;-74
2022/04/06 01:56:36;;;;;;;0.00;0.00;;;;;;;;;;1726374;28;20212;-74
2022/04/06 01:57:28;;;;;;;0.00;0.00;;;;;;;;;;1723308;28;20204;-75
2022/04/06 01:58:20;;;;;;;0.00;0.00;;;;;;;;;;1724757;28;20200;-75
2022/04/06 01:59:11;;;;;;;0.00;0.00;;;;;;;;;;1722660;28;20209;-76
2022/04/06 02:00:06;;;;;;;0.00;0.00;;;;;;;;;;1725052;28;20896;-76
2022/04/06 02:00:57;;;;;;;0.00;0.00;;;;;;;;;;1722003;28;20231;-75
2022/04/06 02:01:53;;;;;;;0.00;0.00;;;;;;;;;;1725897;28;20208;-75
2022/04/06 02:02:47;;;;;;;0.00;0.00;;;;;;;;;;1723138;28;20199;-74
2022/04/06 02:03:38;;;;;;;0.00;0.00;;;;;;;;;;1726274;28;20247;-74
2022/04/06 02:04:30;;;;;;;0.00;0.00;;;;;;;;;;1725408;28;20586;-75
2022/04/06 02:05:22;;;;;;;0.00;0.00;;;;;;;;;;1724564;28;20208;-74
2022/04/06 02:06:14;;;;;;;0.00;0.00;;;;;;;;;;1724895;28;20259;-74
2022/04/06 02:07:06;;;;;;;0.00;0.00;;;;;;;;;;1724698;28;20204;-74
2022/04/06 02:07:58;;;;;;;0.00;0.00;;;;;;;;;;1725774;28;20685;-74
2022/04/06 02:08:50;;;;;;;0.00;0.00;;;;;;;;;;1725528;28;20391;-74
2022/04/06 02:09:44;;;;;;;0.00;0.00;;;;;;;;;;1726264;28;20215;-74
2022/04/06 02:10:35;;;;;;;0.00;0.00;;;;;;;;;;1723558;28;20609;-74
2022/04/06 02:11:27;;;;;;;0.00;0.00;;;;;;;;;;1726169;28;20681;-74
2022/04/06 02:12:21;;;;;;;0.00;0.00;;;;;;;;;;1725546;28;20312;-74
2022/04/06 02:13:13;;;;;;;0.00;0.00;;;;;;;;;;1723471;28;20208;-74
2022/04/06 02:14:05;;;;;;;0.00;0.00;;;;;;;;;;1720562;28;20536;-74
2022/04/06 02:14:57;;;;;;;0.00;0.00;;;;;;;;;;1726400;28;20398;-74
2022/04/06 02:15:48;;;;;;;0.00;0.00;;;;;;;;;;1720480;28;20584;-74
2022/04/06 02:16:40;;;;;;;0.00;0.00;;;;;;;;;;1724692;28;20208;-74
2022/04/06 02:17:32;;;;;;;0.00;0.00;;;;;;;;;;1723518;28;20494;-75
2022/04/06 02:18:24;;;;;;;0.00;0.00;;;;;;;;;;1726085;28;20204;-75
2022/04/06 02:19:15;;;;;;;0.00;0.00;;;;;;;;;;1723989;28;20216;-75
2022/04/06 02:20:08;;;;;;;0.00;0.00;;;;;;;;;;1724932;28;20263;-74
2022/04/06 02:20:59;;;;;;;0.00;0.00;;;;;;;;;;1722923;28;20240;-74
2022/04/06 02:21:51;;;;;;;0.00;0.00;;;;;;;;;;1725985;28;20681;-74
2022/04/06 02:22:42;;;;;;;0.00;0.00;;;;;;;;;;1724088;28;20673;-74
2022/04/06 02:23:34;;;;;;;0.00;0.00;;;;;;;;;;1726056;28;20211;-74
2022/04/06 02:24:25;;;;;;;0.00;0.00;;;;;;;;;;1724225;28;20519;-74
2022/04/06 02:25:21;;;;;;;0.00;0.00;;;;;;;;;;1724367;28;20204;-74
2022/04/06 02:26:12;;;;;;;0.00;0.00;;;;;;;;;;1722464;28;20231;-74
2022/04/06 02:27:06;;;;;;;0.00;0.00;;;;;;;;;;1725554;28;20204;-74
2022/04/06 02:27:58;;;;;;;0.00;0.00;;;;;;;;;;1722011;28;20212;-74
2022/04/06 02:28:50;;;;;;;0.00;0.00;;;;;;;;;;1724921;28;20296;-74
2022/04/06 02:29:41;;;;;;;0.00;0.00;;;;;;;;;;1725081;28;20555;-74
2022/04/06 02:30:33;;;;;;;0.00;0.00;;;;;;;;;;1722108;28;20246;-74
2022/04/06 02:31:25;;;;;;;0.00;0.00;;;;;;;;;;1725244;28;20553;-74
2022/04/06 02:32:17;;;;;;;0.00;0.00;;;;;;;;;;1718751;28;20215;-74
2022/04/06 02:33:08;;;;;;;0.00;0.00;;;;;;;;;;1723678;28;20204;-74
2022/04/06 02:34:00;;;;;;;0.00;0.00;;;;;;;;;;1724666;28;20211;-74
2022/04/06 02:34:52;;;;;;;0.00;0.00;;;;;;;;;;1725997;28;20516;-74
2022/04/06 02:35:45;;;;;;;0.00;0.00;;;;;;;;;;1722461;28;20667;-74
2022/04/06 02:36:36;;;;;;;0.00;0.00;;;;;;;;;;1726192;28;20242;-75
2022/04/06 02:37:28;;;;;;;0.00;0.00;;;;;;;;;;1725529;28;20216;-75
2022/04/06 02:38:19;;;;;;;0.00;0.00;;;;;;;;;;1724976;28;20219;-75
2022/04/06 02:39:11;;;;;;;0.00;0.00;;;;;;;;;;1724156;28;20201;-75
2022/04/06 02:40:04;;;;;;;0.00;0.00;;;;;;;;;;1725680;28;20204;-75
2022/04/06 02:40:58;;;;;;;0.00;0.00;;;;;;;;;;1723300;28;20232;-75
2022/04/06 02:41:49;;;;;;;0.00;0.00;;;;;;;;;;1725737;28;20362;-74
2022/04/06 02:42:41;;;;;;;0.00;0.00;;;;;;;;;;1721708;28;20235;-74
2022/04/06 02:43:32;;;;;;;0.00;0.00;;;;;;;;;;1726113;28;20316;-74
2022/04/06 02:44:24;;;;;;;0.00;0.00;;;;;;;;;;1724533;28;20295;-74
2022/04/06 02:45:16;;;;;;;0.00;0.00;;;;;;;;;;1723940;28;20642;-75
2022/04/06 02:46:08;;;;;;;0.00;0.00;;;;;;;;;;1720633;28;20236;-75
2022/04/06 02:46:59;;;;;;;0.00;0.00;;;;;;;;;;1725980;28;20326;-74
2022/04/06 02:47:51;;;;;;;0.00;0.00;;;;;;;;;;1724350;28;20200;-74
2022/04/06 02:48:43;;;;;;;0.00;0.00;;;;;;;;;;1725537;28;20203;-74
2022/04/06 02:49:35;;;;;;;0.00;0.00;;;;;;;;;;1720996;28;20205;-74
2022/04/06 02:50:26;;;;;;;0.00;0.00;;;;;;;;;;1722197;28;20227;-75
2022/04/06 02:51:18;;;;;;;0.00;0.00;;;;;;;;;;1723675;28;20226;-75
2022/04/06 02:52:09;;;;;;;0.00;0.00;;;;;;;;;;1724015;28;20212;-74
2022/04/06 02:53:02;;;;;;;0.00;0.00;;;;;;;;;;1724296;28;20262;-75
2022/04/06 02:53:53;;;;;;;0.00;0.00;;;;;;;;;;1718450;28;20201;-75
2022/04/06 02:54:45;;;;;;;0.10;0.10;;;;;;;;;;1725155;28;20704;-75
2022/04/06 02:55:37;;;;;;;0.00;0.00;;;;;;;;;;1722503;28;20232;-75
2022/04/06 02:56:31;;;;;;;0.00;0.00;;;;;;;;;;1722242;28;20474;-75
2022/04/06 02:57:22;;;;;;;0.00;0.00;;;;;;;;;;1722551;28;20959;-74
2022/04/06 02:58:14;;;;;;;0.00;0.00;;;;;;;;;;1726001;28;20236;-75
2022/04/06 02:59:05;;;;;;;0.00;0.00;;;;;;;;;;1723124;28;20567;-75
2022/04/06 02:59:58;;;;;;;0.00;0.00;;;;;;;;;;1725634;28;20709;-75
2022/04/06 03:00:49;;;;;;;0.00;0.00;;;;;;;;;;1722700;28;20239;-75
2022/04/06 03:01:41;;;;;;;0.00;0.00;;;;;;;;;;1725198;28;20200;-75
2022/04/06 03:02:32;;;;;;;0.00;0.00;;;;;;;;;;1723091;28;20219;-74
2022/04/06 03:03:24;;;;;;;0.00;0.00;;;;;;;;;;1724564;28;20662;-74
2022/04/06 03:04:16;;;;;;;0.00;0.00;;;;;;;;;;1723887;28;20208;-75
2022/04/06 03:05:08;;;;;;;0.00;0.00;;;;;;;;;;1725704;28;20637;-74
2022/04/06 03:05:59;;;;;;;0.00;0.00;;;;;;;;;;1722680;28;20248;-75
2022/04/06 03:06:52;;;;;;;0.00;0.00;;;;;;;;;;1725957;28;20210;-74
2022/04/06 03:07:43;;;;;;;0.00;0.00;;;;;;;;;;1722476;28;20204;-75
2022/04/06 03:08:35;;;;;;;0.00;0.00;;;;;;;;;;1725812;28;20211;-75
2022/04/06 03:09:26;;;;;;;0.00;0.00;;;;;;;;;;1721244;28;20208;-75
2022/04/06 03:10:18;;;;;;;0.00;0.00;;;;;;;;;;1714285;28;20264;-75
2022/04/06 03:11:10;;;;;;;0.00;0.00;;;;;;;;;;1723736;28;20243;-74
2022/04/06 03:12:05;;;;;;;0.00;0.00;;;;;;;;;;1724566;28;20204;-74
2022/04/06 03:12:56;;;;;;;0.00;0.00;;;;;;;;;;1723513;28;20208;-74
2022/04/06 03:13:49;;;;;;;0.00;0.00;;;;;;;;;;1725376;28;20196;-74
2022/04/06 03:14:41;;;;;;;0.00;0.00;;;;;;;;;;1725508;28;20240;-76
2022/04/06 03:15:33;;;;;;;0.00;0.00;;;;;;;;;;1721235;28;20319;-75
2022/04/06 03:16:24;;;;;;;0.00;0.00;;;;;;;;;;1721816;28;20512;-75
2022/04/06 03:17:16;;;;;;;0.00;0.00;;;;;;;;;;1723561;28;20204;-75
2022/04/06 03:18:11;;;;;;;0.00;0.00;;;;;;;;;;1722425;28;20219;-75
2022/04/06 03:19:03;;;;;;;0.05;0.05;;;;;;;;;;1723684;28;20212;-75
2022/04/06 03:19:54;;;;;;;0.00;0.00;;;;;;;;;;1725479;28;20205;-75
2022/04/06 03:20:46;;;;;;;0.00;0.00;;;;;;;;;;1722066;28;21223;-75
2022/04/06 03:21:37;;;;;;;0.00;0.00;;;;;;;;;;1725569;28;20204;-74
2022/04/06 03:22:30;;;;;;;0.00;0.00;;;;;;;;;;1721307;28;20649;-74
2022/04/06 03:23:21;;;;;;;0.00;0.00;;;;;;;;;;1723930;28;20223;-74
2022/04/06 03:24:14;;;;;;;0.00;0.00;;;;;;;;;;1723113;28;20216;-74
2022/04/06 03:25:06;;;;;;;0.00;0.00;;;;;;;;;;1725977;28;20448;-74
2022/04/06 03:25:58;;;;;;;0.00;0.00;;;;;;;;;;1720289;28;20250;-75
2022/04/06 03:26:50;;;;;;;0.00;0.00;;;;;;;;;;1725698;28;20219;-74
2022/04/06 03:27:43;;;;;;;0.00;0.00;;;;;;;;;;1722287;28;20196;-75
2022/04/06 03:28:35;;;;;;;0.00;0.00;;;;;;;;;;1724534;28;20213;-75
2022/04/06 03:29:27;;;;;;;0.00;0.00;;;;;;;;;;1722442;28;20204;-74
2022/04/06 03:30:18;;;;;;;0.00;0.00;;;;;;;;;;1723639;28;20212;-75
2022/04/06 03:31:10;;;;;;;0.00;0.00;;;;;;;;;;1725399;28;20233;-73
2022/04/06 03:32:01;;;;;;;0.00;0.00;;;;;;;;;;1721037;28;20205;-73
2022/04/06 03:32:54;;;;;;;0.00;0.00;;;;;;;;;;1720410;28;20205;-73
2022/04/06 03:33:45;;;;;;;0.00;0.00;;;;;;;;;;1722472;28;20215;-74
2022/04/06 03:34:37;;;;;;;0.00;0.00;;;;;;;;;;1723868;28;20238;-74
2022/04/06 03:35:29;;;;;;;0.00;0.00;;;;;;;;;;1722235;28;20216;-74
2022/04/06 03:36:21;;;;;;;0.00;0.00;;;;;;;;;;1725498;28;20196;-74
2022/04/06 03:37:12;;;;;;;0.00;0.00;;;;;;;;;;1724120;28;20405;-74
2022/04/06 03:38:04;;;;;;;0.00;0.00;;;;;;;;;;1722552;28;20274;-74
2022/04/06 03:38:56;;;;;;;0.00;0.00;;;;;;;;;;1723332;28;20718;-74
2022/04/06 03:39:48;;;;;;;0.00;0.00;;;;;;;;;;1725034;28;20283;-74
2022/04/06 03:40:39;;;;;;;0.00;0.00;;;;;;;;;;1721843;28;20606;-75
2022/04/06 03:41:31;;;;;;;0.00;0.00;;;;;;;;;;1725693;28;20223;-75
2022/04/06 03:42:23;;;;;;;0.00;0.00;;;;;;;;;;1724330;28;20622;-75
2022/04/06 03:43:17;;;;;;;0.00;0.00;;;;;;;;;;1725204;28;20547;-75
2022/04/06 03:44:08;;;;;;;0.00;0.00;;;;;;;;;;1723065;28;20476;-75
2022/04/06 03:45:00;;;;;;;0.00;0.00;;;;;;;;;;1725559;28;20543;-75
2022/04/06 03:45:51;;;;;;;0.00;0.00;;;;;;;;;;1721606;28;20246;-74
2022/04/06 03:46:43;;;;;;;0.00;0.00;;;;;;;;;;1724815;28;20208;-74
2022/04/06 03:47:35;;;;;;;0.00;0.00;;;;;;;;;;1724245;28;20469;-74
2022/04/06 03:48:28;;;;;;;0.00;0.00;;;;;;;;;;1725649;28;20588;-74
2022/04/06 03:49:19;;;;;;;0.00;0.00;;;;;;;;;;1724076;28;20212;-75
2022/04/06 03:50:11;;;;;;;0.00;0.00;;;;;;;;;;1724199;28;20600;-76
2022/04/06 03:51:02;;;;;;;0.00;0.00;;;;;;;;;;1723265;28;20251;-75
2022/04/06 03:51:55;;;;;;;0.00;0.00;;;;;;;;;;1725696;28;20200;-74
2022/04/06 03:52:46;;;;;;;0.00;0.00;;;;;;;;;;1723314;28;20711;-74
2022/04/06 03:53:38;;;;;;;0.00;0.00;;;;;;;;;;1720279;28;20201;-74
2022/04/06 03:54:29;;;;;;;0.00;0.00;;;;;;;;;;1723268;28;20702;-74
2022/04/06 03:55:23;;;;;;;0.00;0.00;;;;;;;;;;1723648;28;20295;-73
2022/04/06 03:56:14;;;;;;;0.00;0.00;;;;;;;;;;1724387;28;20590;-75
2022/04/06 03:57:06;;;;;;;0.00;0.00;;;;;;;;;;1724838;28;20204;-74
2022/04/06 03:57:58;;;;;;;0.00;0.00;;;;;;;;;;1725433;28;20685;-74
2022/04/06 03:58:51;;;;;;;0.00;0.00;;;;;;;;;;1723953;28;20515;-75
2022/04/06 03:59:42;;;;;;;0.00;0.00;;;;;;;;;;1724743;28;20777;-75
2022/04/06 04:00:35;;;;;;;0.00;0.00;;;;;;;;;;1722341;28;20294;-75
2022/04/06 04:01:28;;;;;;;0.00;0.00;;;;;;;;;;1724554;28;20212;-73
2022/04/06 04:02:20;;;;;;;0.00;0.00;;;;;;;;;;1719211;28;20205;-74
2022/04/06 04:03:11;;;;;;;0.00;0.00;;;;;;;;;;1724641;28;20347;-74
2022/04/06 04:04:04;;;;;;;0.00;0.00;;;;;;;;;;1722838;28;20201;-73
2022/04/06 04:04:55;;;;;;;0.00;0.00;;;;;;;;;;1725170;28;20257;-74
2022/04/06 04:05:47;;;;;;;0.00;0.00;;;;;;;;;;1721054;28;20267;-75
2022/04/06 04:06:38;;;;;;;0.00;0.00;;;;;;;;;;1725570;28;20255;-74
2022/04/06 04:07:31;;;;;;;0.00;0.00;;;;;;;;;;1724489;28;20630;-74
2022/04/06 04:08:23;;;;;;;0.00;0.00;;;;;;;;;;1725506;28;20219;-74
2022/04/06 04:09:15;;;;;;;0.00;0.00;;;;;;;;;;1723790;28;20274;-74
2022/04/06 04:10:07;;;;;;;0.00;0.00;;;;;;;;;;1724634;28;20219;-75
2022/04/06 04:10:59;;;;;;;0.00;0.00;;;;;;;;;;1722100;28;20232;-75
2022/04/06 04:11:51;;;;;;;0.00;0.00;;;;;;;;;;1724512;28;20215;-75
2022/04/06 04:12:43;;;;;;;0.00;0.00;;;;;;;;;;1721868;28;20204;-74
2022/04/06 04:13:34;;;;;;;0.00;0.00;;;;;;;;;;1725387;28;20240;-75
2022/04/06 04:14:30;;;;;;;0.00;0.00;;;;;;;;;;1724707;28;20232;-74
2022/04/06 04:15:22;;;;;;;0.00;0.00;;;;;;;;;;1724255;28;20235;-75
2022/04/06 04:16:15;;;;;;;0.00;0.00;;;;;;;;;;1722770;28;20228;-75
2022/04/06 04:17:06;;;;;;;0.00;0.00;;;;;;;;;;1724548;28;20218;-74
2022/04/06 04:17:58;;;;;;;0.00;0.00;;;;;;;;;;1723544;28;20248;-74
2022/04/06 04:18:51;;;;;;;0.00;0.00;;;;;;;;;;1724311;28;20270;-75
2022/04/06 04:19:43;;;;;;;0.00;0.00;;;;;;;;;;1724281;28;20207;-75
2022/04/06 04:20:34;;;;;;;0.00;0.00;;;;;;;;;;1722254;28;20240;-73
2022/04/06 04:21:33;;;;;;;0.00;0.00;;;;;;;;;;1724606;28;20204;-73
2022/04/06 04:22:24;;;;;;;0.00;0.00;;;;;;;;;;1724702;28;20200;-73
2022/04/06 04:23:16;;;;;;;0.00;0.00;;;;;;;;;;1725029;28;20212;-73
2022/04/06 04:24:08;;;;;;;0.00;0.00;;;;;;;;;;1722495;28;20813;-74
2022/04/06 04:25:00;;;;;;;0.00;0.00;;;;;;;;;;1725151;28;20215;-73
2022/04/06 04:25:51;;;;;;;0.00;0.00;;;;;;;;;;1721318;28;20737;-73
2022/04/06 04:26:44;;;;;;;0.03;0.03;;;;;;;;;;1724971;28;20348;-73
2022/04/06 04:27:35;;;;;;;0.00;0.00;;;;;;;;;;1723316;28;20232;-74
2022/04/06 04:28:28;;;;;;;0.00;0.00;;;;;;;;;;1725190;28;20196;-74
2022/04/06 04:29:19;;;;;;;0.00;0.00;;;;;;;;;;1723947;28;20220;-74
2022/04/06 04:30:13;;;;;;;0.00;0.00;;;;;;;;;;1723420;28;20204;-73
2022/04/06 04:31:04;;;;;;;0.00;0.00;;;;;;;;;;1723143;28;20293;-73
2022/04/06 04:31:56;;;;;;;0.00;0.00;;;;;;;;;;1725292;28;20312;-73
2022/04/06 04:32:48;;;;;;;0.00;0.00;;;;;;;;;;1720651;28;20197;-74
2022/04/06 04:33:41;;;;;;;0.00;0.00;;;;;;;;;;1723775;28;20631;-74
2022/04/06 04:34:32;;;;;;;0.00;0.00;;;;;;;;;;1723456;28;20261;-73
2022/04/06 04:35:24;;;;;;;0.00;0.00;;;;;;;;;;1723506;28;20228;-73
2022/04/06 04:36:16;;;;;;;0.00;0.00;;;;;;;;;;1723221;28;20591;-73
2022/04/06 04:37:08;;;;;;;0.00;0.00;;;;;;;;;;1723785;28;20291;-74
2022/04/06 04:37:59;;;;;;;0.00;0.00;;;;;;;;;;1725224;28;20581;-74
2022/04/06 04:38:51;;;;;;;0.00;0.00;;;;;;;;;;1724983;28;20701;-74
2022/04/06 04:39:42;;;;;;;0.00;0.00;;;;;;;;;;1718052;28;20740;-73
2022/04/06 04:40:35;;;;;;;0.00;0.00;;;;;;;;;;1715820;28;20240;-73
2022/04/06 04:41:26;;;;;;;0.00;0.00;;;;;;;;;;1723606;28;20215;-73
2022/04/06 04:42:19;;;;;;;0.00;0.00;;;;;;;;;;1725203;28;20208;-74
2022/04/06 04:43:10;;;;;;;0.00;0.00;;;;;;;;;;1722912;28;20315;-73
2022/04/06 04:44:03;;;;;;;0.00;0.00;;;;;;;;;;1724899;28;20220;-73
2022/04/06 04:44:54;;;;;;;0.00;0.00;;;;;;;;;;1726902;28;20251;-73
2022/04/06 04:45:48;;;;;;;0.00;0.00;;;;;;;;;;1722826;28;20237;-73
2022/04/06 04:46:39;;;;;;;0.00;0.00;;;;;;;;;;1726777;28;20208;-74
2022/04/06 04:47:32;;;;;;;0.00;0.00;;;;;;;;;;1723792;28;20224;-74
2022/04/06 04:48:23;;;;;;;0.00;0.00;;;;;;;;;;1725361;28;20626;-74
2022/04/06 04:49:15;;;;;;;0.00;0.00;;;;;;;;;;1725080;28;20292;-74
2022/04/06 04:50:08;;;;;;;0.00;0.00;;;;;;;;;;1726397;28;20219;-74
2022/04/06 04:51:00;;;;;;;0.00;0.00;;;;;;;;;;1723323;28;20239;-74
2022/04/06 04:51:52;;;;;;;0.00;0.00;;;;;;;;;;1726574;28;20242;-74
2022/04/06 04:52:44;;;;;;;0.00;0.00;;;;;;;;;;1724901;28;20208;-74
2022/04/06 04:53:36;;;;;;;0.00;0.00;;;;;;;;;;1721896;28;20216;-74
2022/04/06 04:54:27;;;;;;;0.00;0.00;;;;;;;;;;1724650;28;20237;-74
2022/04/06 04:55:22;;;;;;;0.00;0.00;;;;;;;;;;1724166;28;20289;-74
2022/04/06 04:56:15;;;;;;;0.00;0.00;;;;;;;;;;1723745;28;20232;-74
2022/04/06 04:57:07;;;;;;;0.00;0.00;;;;;;;;;;1725920;28;20538;-73
2022/04/06 04:57:59;;;;;;;0.00;0.00;;;;;;;;;;1726187;28;20372;-74
2022/04/06 04:58:51;;;;;;;0.10;0.10;;;;;;;;;;1724923;28;20212;-73
2022/04/06 04:59:42;;;;;;;0.00;0.00;;;;;;;;;;1725514;28;20208;-73
2022/04/06 05:00:34;;;;;;;0.00;0.00;;;;;;;;;;1722798;28;20228;-74
2022/04/06 05:01:27;;;;;;;0.00;0.00;;;;;;;;;;1725806;28;20208;-74
2022/04/06 05:02:19;;;;;;;0.00;0.00;;;;;;;;;;1725303;28;20698;-74
2022/04/06 05:03:10;;;;;;;0.00;0.00;;;;;;;;;;1723359;28;20216;-74
2022/04/06 05:04:02;;;;;;;0.00;0.00;;;;;;;;;;1724825;28;20296;-74
2022/04/06 05:04:54;;;;;;;0.00;0.00;;;;;;;;;;1727074;28;20201;-74
2022/04/06 05:05:49;;;;;;;0.00;0.00;;;;;;;;;;1723180;28;21727;-73
2022/04/06 05:06:41;;;;;;;0.00;0.00;;;;;;;;;;1726766;28;20204;-74
2022/04/06 05:07:37;;;;;;;0.00;0.00;;;;;;;;;;1724351;28;20231;-73
2022/04/06 05:08:28;;;;;;;0.00;0.00;;;;;;;;;;1726775;28;20251;-74
2022/04/06 05:09:21;;;;;;;0.00;0.00;;;;;;;;;;1723133;28;20268;-73
2022/04/06 05:10:12;;;;;;;0.00;0.00;;;;;;;;;;1718916;28;20205;-73
2022/04/06 05:11:04;;;;;;;0.00;0.00;;;;;;;;;;1721969;28;20318;-74
2022/04/06 05:11:55;;;;;;;0.00;0.00;;;;;;;;;;1726681;28;20224;-73
2022/04/06 05:12:48;;;;;;;0.00;0.00;;;;;;;;;;1722865;28;20603;-74
2022/04/06 05:13:39;;;;;;;0.00;0.00;;;;;;;;;;1725974;28;20205;-73
2022/04/06 05:14:32;;;;;;;0.00;0.00;;;;;;;;;;1725327;28;20262;-73
2022/04/06 05:15:23;;;;;;;0.00;0.00;;;;;;;;;;1724607;28;20562;-73
2022/04/06 05:16:16;;;;;;;0.00;0.00;;;;;;;;;;1725584;28;20758;-73
2022/04/06 05:17:09;;;;;;;0.00;0.00;;;;;;;;;;1718160;28;20208;-73